Time;durP1;ratioP1;P1;durP2;ratioP2;P2;SDS_P1;SDS_P2;PMS_P1;PMS_P2;Temp;Humidity;BMP_temperature;BMP_pressure;BME280_temperature;BME280_humidity;BME280_pressure;Samples;Min_cycle;Max_cycle;Signal;HPM_P1;HPM_P2
2021/01/24 00:01:27;;;;;;;47.10;42.05;;;22.80;46.00;;;;;;5094390;28;20304;-55
2021/01/24 00:03:53;;;;;;;43.85;39.30;;;22.80;46.00;;;;;;5094227;28;20020;-55
2021/01/24 00:06:19;;;;;;;46.22;41.15;;;22.80;46.00;;;;;;5094061;28;20450;-55
2021/01/24 00:08:45;;;;;;;43.92;39.22;;;22.70;46.00;;;;;;5092812;28;20035;-55
2021/01/24 00:11:11;;;;;;;44.63;40.03;;;22.80;46.10;;;;;;5094110;28;20028;-56
2021/01/24 00:13:37;;;;;;;46.40;41.58;;;22.80;46.10;;;;;;5092885;28;20143;-55
2021/01/24 00:16:04;;;;;;;45.50;40.42;;;22.80;46.10;;;;;;5094195;28;20031;-55
2021/01/24 00:18:29;;;;;;;44.70;40.15;;;22.70;46.00;;;;;;5093877;28;20047;-55
2021/01/24 00:20:55;;;;;;;46.42;41.50;;;22.80;46.10;;;;;;5093841;28;20481;-55
2021/01/24 00:23:21;;;;;;;48.58;43.58;;;22.70;46.10;;;;;;5093924;28;20024;-55
2021/01/24 00:25:47;;;;;;;45.72;40.92;;;22.80;46.10;;;;;;5093669;28;20024;-55
2021/01/24 00:28:20;;;;;;;48.08;42.92;;;22.70;46.00;;;;;;5093656;28;20047;-55
2021/01/24 00:30:46;;;;;;;46.42;41.70;;;22.70;46.10;;;;;;5093339;28;20036;-55
2021/01/24 00:33:12;;;;;;;46.03;41.42;;;22.70;46.10;;;;;;5093677;28;20028;-55
2021/01/24 00:35:39;;;;;;;44.83;40.10;;;22.70;46.10;;;;;;5092837;28;20135;-57
2021/01/24 00:38:05;;;;;;;42.83;38.47;;;22.70;46.10;;;;;;5093581;28;20032;-56
2021/01/24 00:40:31;;;;;;;42.38;37.67;;;22.70;46.10;;;;;;5093483;28;20051;-56
2021/01/24 00:42:57;;;;;;;39.70;35.65;;;22.70;46.20;;;;;;5093255;28;20466;-56
2021/01/24 00:45:23;;;;;;;43.75;39.03;;;22.70;46.30;;;;;;5093469;28;20024;-56
2021/01/24 00:47:49;;;;;;;43.72;39.05;;;22.70;46.30;;;;;;5093523;28;20032;-56
2021/01/24 00:50:15;;;;;;;44.38;39.78;;;22.70;46.30;;;;;;5092245;28;20027;-56
2021/01/24 00:52:41;;;;;;;44.00;39.35;;;22.70;46.30;;;;;;5093507;28;20050;-56
2021/01/24 00:55:08;;;;;;;42.55;38.25;;;22.70;46.30;;;;;;5092332;28;20377;-55
2021/01/24 00:57:34;;;;;;;44.20;39.50;;;22.60;46.30;;;;;;5093569;28;20470;-56
2021/01/24 01:00:00;;;;;;;44.28;39.55;;;22.60;46.30;;;;;;5093420;28;20051;-56
2021/01/24 01:02:26;;;;;;;44.95;40.08;;;22.60;46.30;;;;;;5093557;28;20350;-56
2021/01/24 01:04:52;;;;;;;41.47;37.22;;;22.60;46.30;;;;;;5092063;28;20024;-54
2021/01/24 01:07:18;;;;;;;42.35;37.40;;;22.60;46.30;;;;;;5093459;28;20040;-55
2021/01/24 01:09:44;;;;;;;40.40;36.08;;;22.60;46.50;;;;;;5093357;28;20036;-55
2021/01/24 01:12:10;;;;;;;40.35;36.00;;;22.60;46.50;;;;;;5093429;28;20374;-56
2021/01/24 01:14:36;;;;;;;39.20;35.17;;;22.60;46.40;;;;;;5093414;28;20027;-55
2021/01/24 01:17:02;;;;;;;42.63;38.20;;;22.60;47.10;;;;;;5093387;28;20034;-56
2021/01/24 01:19:28;;;;;;;39.75;35.75;;;22.60;46.50;;;;;;5093352;28;20063;-56
2021/01/24 01:21:54;;;;;;;43.22;38.70;;;22.60;46.50;;;;;;5092208;28;20063;-56
2021/01/24 01:24:20;;;;;;;40.45;36.17;;;22.60;46.50;;;;;;5093120;28;20024;-55
2021/01/24 01:26:46;;;;;;;40.65;36.40;;;22.60;46.60;;;;;;5093287;28;20082;-55
2021/01/24 01:29:12;;;;;;;39.17;34.97;;;22.50;46.50;;;;;;5091552;28;20032;-54
2021/01/24 01:31:38;;;;;;;41.90;37.08;;;22.60;46.60;;;;;;5093271;28;20024;-55
2021/01/24 01:34:04;;;;;;;39.72;35.40;;;22.50;46.50;;;;;;5093244;28;20093;-54
2021/01/24 01:36:30;;;;;;;41.22;36.72;;;22.50;46.50;;;;;;5092820;28;20040;-55
2021/01/24 01:38:58;;;;;;;42.15;37.58;;;22.50;46.50;;;;;;5093441;28;20473;-54
2021/01/24 01:41:29;;;;;;;41.72;37.38;;;22.50;46.60;;;;;;5095342;28;20024;-54
2021/01/24 01:43:55;;;;;;;42.72;38.35;;;22.50;46.70;;;;;;5097109;28;20020;-54
2021/01/24 01:46:22;;;;;;;42.08;37.72;;;22.50;46.60;;;;;;5097333;28;20446;-54
2021/01/24 01:48:50;;;;;;;44.15;39.33;;;22.50;46.60;;;;;;5095891;28;20032;-54
2021/01/24 01:51:16;;;;;;;42.03;37.53;;;22.50;47.30;;;;;;5097249;28;20029;-54
2021/01/24 01:53:44;;;;;;;41.85;37.47;;;22.50;46.70;;;;;;5096912;28;20032;-55
2021/01/24 01:56:11;;;;;;;39.78;35.70;;;22.50;46.70;;;;;;5096949;28;20028;-55
2021/01/24 01:58:37;;;;;;;41.30;36.60;;;22.50;46.70;;;;;;5096496;28;20040;-55
2021/01/24 02:01:09;;;;;;;40.65;36.40;;;22.50;46.60;;;;;;5096630;28;20032;-55
2021/01/24 02:03:43;;;;;;;40.05;35.75;;;22.50;46.70;;;;;;5080728;28;20033;-55
2021/01/24 02:06:33;;;;;;;43.67;38.45;;;22.50;46.80;;;;;;5076330;28;20051;-55
2021/01/24 02:08:59;;;;;;;;;;;22.50;46.70;;;;;;5076599;28;20028;-55
2021/01/24 02:11:25;;;;;;;41.03;36.60;;;22.50;46.60;;;;;;5076219;28;19927;-56
2021/01/24 02:14:13;;;;;;;41.60;36.67;;;22.60;46.50;;;;;;5076360;28;20025;-55
2021/01/24 02:16:40;;;;;;;42.13;37.63;;;22.50;46.60;;;;;;5076128;28;20040;-55
2021/01/24 02:19:11;;;;;;;39.88;35.72;;;22.60;46.70;;;;;;5076215;28;20505;-55
2021/01/24 02:21:41;;;;;;;40.55;36.45;;;22.50;46.60;;;;;;5076203;28;20024;-55
2021/01/24 02:24:12;;;;;;;41.85;36.00;;;22.50;46.70;;;;;;5075822;28;20037;-55
2021/01/24 02:27:02;;;;;;;39.30;35.10;;;22.50;46.80;;;;;;5074814;28;20024;-56
2021/01/24 02:29:32;;;;;;;39.38;35.17;;;22.50;46.80;;;;;;5094975;28;20016;-55
2021/01/24 02:32:02;;;;;;;40.25;35.90;;;22.50;46.70;;;;;;5096067;28;20032;-55
2021/01/24 02:34:32;;;;;;;39.20;35.03;;;22.50;46.70;;;;;;5096099;28;20450;-55
2021/01/24 02:37:00;;;;;;;39.53;35.30;;;22.50;46.80;;;;;;5096136;28;20044;-56
2021/01/24 02:39:27;;;;;;;38.88;34.67;;;22.50;46.70;;;;;;5096065;28;20035;-55
2021/01/24 02:41:53;;;;;;;39.75;34.47;;;22.50;46.70;;;;;;5096233;28;20409;-55
2021/01/24 02:44:20;;;;;;;38.03;32.33;;;22.50;46.90;;;;;;5095878;28;20114;-55
2021/01/24 02:46:46;;;;;;;39.92;34.40;;;22.50;46.90;;;;;;5095928;28;20099;-55
2021/01/24 02:49:13;;;;;;;39.60;34.08;;;22.50;46.90;;;;;;5096242;28;20032;-56
2021/01/24 02:51:41;;;;;;;40.97;33.38;;;22.50;46.90;;;;;;5095293;28;20035;-55
2021/01/24 02:54:08;;;;;;;40.45;33.28;;;22.50;46.90;;;;;;5094747;28;20031;-55
2021/01/24 02:56:35;;;;;;;38.47;33.65;;;22.40;46.80;;;;;;5095936;28;20409;-55
2021/01/24 02:59:02;;;;;;;39.30;33.67;;;22.50;46.90;;;;;;5095911;28;20440;-55
2021/01/24 03:01:28;;;;;;;37.42;33.35;;;22.50;46.90;;;;;;5095649;28;20081;-55
2021/01/24 03:03:54;;;;;;;41.95;34.13;;;22.50;46.90;;;;;;5095795;28;20020;-55
2021/01/24 03:06:20;;;;;;;37.85;33.70;;;22.50;46.90;;;;;;5095608;28;20066;-55
2021/01/24 03:08:46;;;;;;;36.55;32.63;;;22.50;46.90;;;;;;5094203;28;20028;-56
2021/01/24 03:11:16;;;;;;;38.35;33.15;;;22.50;46.90;;;;;;5094419;28;20110;-55
2021/01/24 03:13:59;;;;;;;39.35;33.70;;;22.40;46.90;;;;;;5095533;28;20032;-56
2021/01/24 03:16:26;;;;;;;36.63;32.75;;;22.40;46.90;;;;;;5095385;28;20044;-55
2021/01/24 03:18:53;;;;;;;36.08;32.17;;;22.40;46.90;;;;;;5095478;28;20030;-55
2021/01/24 03:21:21;;;;;;;37.42;32.70;;;22.40;46.90;;;;;;5095181;28;20110;-55
2021/01/24 03:23:48;;;;;;;37.70;32.58;;;22.40;46.90;;;;;;5094413;28;20055;-55
2021/01/24 03:26:14;;;;;;;38.80;33.08;;;22.40;46.90;;;;;;5095347;28;20458;-55
2021/01/24 03:28:40;;;;;;;38.17;32.00;;;22.40;46.90;;;;;;5095193;28;20046;-55
2021/01/24 03:31:08;;;;;;;36.22;31.23;;;22.40;46.90;;;;;;5095484;28;20082;-55
2021/01/24 03:33:36;;;;;;;39.60;32.92;;;22.40;46.90;;;;;;5095081;28;20028;-55
2021/01/24 03:36:03;;;;;;;37.22;32.25;;;22.40;47.00;;;;;;5093679;28;20151;-55
2021/01/24 03:38:29;;;;;;;35.50;31.67;;;22.40;46.90;;;;;;5093773;28;20035;-56
2021/01/24 03:40:55;;;;;;;35.58;31.70;;;22.40;47.00;;;;;;5094865;28;20035;-55
2021/01/24 03:43:22;;;;;;;38.42;32.60;;;22.40;46.90;;;;;;5094741;28;20028;-55
2021/01/24 03:45:48;;;;;;;34.35;29.67;;;22.40;46.90;;;;;;5094802;28;20420;-55
2021/01/24 03:48:14;;;;;;;37.70;32.10;;;22.40;47.00;;;;;;5094758;28;20035;-55
2021/01/24 03:50:40;;;;;;;36.38;30.85;;;22.40;47.00;;;;;;5095195;28;20028;-55
2021/01/24 03:53:06;;;;;;;36.90;31.80;;;22.40;47.00;;;;;;5094415;28;20032;-55
2021/01/24 03:55:32;;;;;;;35.47;31.60;;;22.40;47.00;;;;;;5094625;28;20439;-54
2021/01/24 03:57:58;;;;;;;35.45;31.10;;;22.40;47.00;;;;;;5094546;28;20107;-55
2021/01/24 04:00:24;;;;;;;37.40;32.50;;;22.40;47.00;;;;;;5092747;28;20028;-55
2021/01/24 04:02:50;;;;;;;38.28;32.78;;;22.40;47.00;;;;;;5094754;28;20078;-55
2021/01/24 04:05:16;;;;;;;38.72;30.73;;;22.40;47.00;;;;;;5094242;28;20579;-55
2021/01/24 04:07:43;;;;;;;43.03;32.38;;;22.40;47.00;;;;;;5094347;28;20035;-55
2021/01/24 04:10:10;;;;;;;38.63;30.63;;;22.40;47.10;;;;;;5094347;28;20028;-55
2021/01/24 04:12:36;;;;;;;36.63;29.23;;;22.40;47.10;;;;;;5094129;28;20032;-55
2021/01/24 04:15:05;;;;;;;42.40;29.17;;;22.40;47.10;;;;;;5093873;28;20469;-54
2021/01/24 04:17:32;;;;;;;35.80;28.48;;;22.30;47.30;;;;;;5094004;28;20085;-55
2021/01/24 04:19:58;;;;;;;35.80;30.08;;;22.30;47.20;;;;;;5093848;28;20038;-55
2021/01/24 04:22:24;;;;;;;34.78;27.50;;;22.30;47.20;;;;;;5093460;28;20440;-55
2021/01/24 04:24:50;;;;;;;33.28;28.90;;;22.30;47.10;;;;;;5093533;28;20035;-54
2021/01/24 04:27:16;;;;;;;35.40;30.67;;;22.30;47.10;;;;;;5094011;28;20024;-54
2021/01/24 04:29:42;;;;;;;36.53;29.05;;;22.30;47.20;;;;;;5093846;28;20024;-55
2021/01/24 04:32:08;;;;;;;36.95;28.88;;;22.30;47.20;;;;;;5093559;28;20024;-55
2021/01/24 04:34:33;;;;;;;40.55;28.33;;;22.30;47.20;;;;;;5093560;28;20493;-55
2021/01/24 04:36:59;;;;;;;33.13;27.05;;;22.30;47.20;;;;;;5093312;28;20048;-55
2021/01/24 04:39:25;;;;;;;40.30;28.50;;;22.30;47.20;;;;;;5093803;28;20059;-55
2021/01/24 04:41:52;;;;;;;32.35;27.45;;;22.30;47.30;;;;;;5092474;28;20028;-55
2021/01/24 04:44:18;;;;;;;36.28;27.08;;;22.30;47.20;;;;;;5092016;28;20032;-55
2021/01/24 04:46:47;;;;;;;34.97;26.20;;;22.30;47.30;;;;;;5092133;28;20095;-55
2021/01/24 04:49:13;;;;;;;34.65;26.38;;;22.30;47.30;;;;;;5083793;28;20371;-55
2021/01/24 04:51:39;;;;;;;33.45;26.20;;;22.30;47.30;;;;;;5071924;28;20040;-55
2021/01/24 04:54:06;;;;;;;32.58;25.73;;;22.30;47.30;;;;;;5084234;28;20111;-55
2021/01/24 04:56:36;;;;;;;31.77;26.95;;;22.30;47.20;;;;;;5073665;28;20062;-55
2021/01/24 04:59:03;;;;;;;33.63;26.33;;;22.20;47.20;;;;;;5092133;28;20082;-56
2021/01/24 05:01:31;;;;;;;33.83;27.67;;;22.20;47.20;;;;;;5090812;28;20085;-56
2021/01/24 05:03:58;;;;;;;33.20;26.25;;;22.20;47.20;;;;;;5092183;28;20032;-55
2021/01/24 05:06:24;;;;;;;35.13;27.83;;;22.30;47.30;;;;;;5093444;28;20070;-56
2021/01/24 05:08:50;;;;;;;33.58;27.90;;;22.30;47.30;;;;;;5092729;28;20024;-55
2021/01/24 05:11:16;;;;;;;33.35;27.00;;;22.30;47.30;;;;;;5093218;28;20032;-56
2021/01/24 05:13:42;;;;;;;37.53;28.00;;;22.20;47.30;;;;;;5093422;28;20040;-55
2021/01/24 05:16:09;;;;;;;40.17;31.00;;;22.30;47.40;;;;;;5095322;28;20028;-55
2021/01/24 05:18:35;;;;;;;35.95;27.02;;;22.20;47.30;;;;;;5097453;28;20112;-56
2021/01/24 05:21:04;;;;;;;35.35;27.58;;;22.20;47.30;;;;;;5097463;28;20027;-56
2021/01/24 05:23:35;;;;;;;31.15;26.48;;;22.20;47.40;;;;;;5096035;28;20043;-55
2021/01/24 05:26:07;;;;;;;35.00;26.45;;;22.20;47.40;;;;;;5097289;28;20107;-56
2021/01/24 05:28:32;;;;;;;36.22;28.38;;;22.20;47.50;;;;;;5097383;28;20031;-55
2021/01/24 05:31:07;;;;;;;37.42;29.33;;;22.20;47.40;;;;;;5097468;28;20024;-56
2021/01/24 05:33:33;;;;;;;35.63;27.90;;;22.20;47.50;;;;;;5078845;28;20039;-55
2021/01/24 05:36:05;;;;;;;32.10;26.90;;;22.30;47.50;;;;;;5097213;28;20074;-55
2021/01/24 05:38:32;;;;;;;34.22;26.08;;;22.20;47.50;;;;;;5096239;28;20381;-55
2021/01/24 05:41:08;;;;;;;32.90;25.55;;;22.20;47.50;;;;;;5095740;28;20059;-55
2021/01/24 05:43:36;;;;;;;33.92;26.17;;;22.20;47.60;;;;;;5097209;28;20079;-55
2021/01/24 05:46:02;;;;;;;32.75;25.80;;;22.20;47.50;;;;;;5097153;28;20105;-55
2021/01/24 05:48:29;;;;;;;33.95;25.95;;;22.20;47.60;;;;;;5095680;28;20134;-55
2021/01/24 05:50:55;;;;;;;29.88;24.05;;;22.20;47.50;;;;;;5097064;28;20036;-55
2021/01/24 05:53:23;;;;;;;33.55;25.35;;;22.20;47.50;;;;;;5096849;28;20032;-55
2021/01/24 05:55:49;;;;;;;30.35;24.77;;;22.20;47.70;;;;;;5095383;28;20036;-55
2021/01/24 05:58:21;;;;;;;32.00;26.38;;;22.20;47.60;;;;;;5097068;28;20475;-56
2021/01/24 06:00:49;;;;;;;32.35;25.15;;;22.20;47.70;;;;;;5095642;28;20389;-56
2021/01/24 06:03:16;;;;;;;31.65;24.13;;;22.20;47.70;;;;;;5096734;28;20090;-55
2021/01/24 06:05:42;;;;;;;29.17;23.63;;;22.20;47.70;;;;;;5096938;28;20154;-55
2021/01/24 06:08:11;;;;;;;32.85;24.92;;;22.20;47.70;;;;;;5096842;28;20031;-56
2021/01/24 06:10:37;;;;;;;30.55;22.20;;;22.20;47.70;;;;;;5096568;28;20024;-55
2021/01/24 06:13:05;;;;;;;28.83;24.30;;;22.10;47.70;;;;;;5096466;28;20095;-55
2021/01/24 06:15:32;;;;;;;33.28;22.23;;;22.10;47.70;;;;;;5096566;28;20099;-55
2021/01/24 06:17:59;;;;;;;28.60;22.33;;;22.10;47.70;;;;;;5096618;28;20823;-55
2021/01/24 06:20:35;;;;;;;29.98;22.77;;;22.10;47.70;;;;;;5096598;28;20059;-55
2021/01/24 06:23:34;;;;;;;32.17;22.70;;;22.10;47.90;;;;;;5096403;28;20028;-54
2021/01/24 06:26:15;;;;;;;30.75;22.58;;;22.10;47.80;;;;;;5073754;28;20048;-56
2021/01/24 06:28:47;;;;;;;26.80;21.52;;;22.10;47.70;;;;;;5074105;28;20089;-56
2021/01/24 06:31:15;;;;;;;29.75;20.95;;;22.10;47.90;;;;;;5073949;28;20094;-55
2021/01/24 06:33:51;;;;;;;26.73;21.77;;;22.10;48.50;;;;;;5056947;28;20123;-55
2021/01/24 06:36:18;;;;;;;27.15;22.35;;;22.10;48.00;;;;;;5073607;28;20621;-55
2021/01/24 06:38:52;;;;;;;25.65;21.50;;;22.10;47.90;;;;;;5061084;28;20111;-55
2021/01/24 06:41:45;;;;;;;29.33;20.85;;;22.10;47.90;;;;;;5055295;28;20068;-57
2021/01/24 06:44:33;;;;;;;24.80;19.58;;;22.00;47.80;;;;;;5073317;28;20091;-58
2021/01/24 06:47:00;;;;;;;26.45;22.23;;;22.10;47.90;;;;;;5073729;28;20028;-58
2021/01/24 06:49:55;;;;;;;29.23;21.45;;;22.10;47.80;;;;;;5073658;28;20047;-58
2021/01/24 06:52:22;;;;;;;27.77;20.40;;;22.10;47.80;;;;;;5013653;28;20484;-58
2021/01/24 06:54:49;;;;;;;27.65;23.00;;;22.10;47.70;;;;;;4997710;28;20475;-58
2021/01/24 06:57:28;;;;;;;34.05;23.20;;;22.10;47.80;;;;;;5013629;28;20169;-58
2021/01/24 07:00:15;;;;;;;31.25;23.23;;;22.10;47.80;;;;;;5013328;28;20047;-60
2021/01/24 07:02:41;;;;;;;33.78;25.27;;;22.10;47.80;;;;;;5013531;28;20140;-58
2021/01/24 07:05:16;;;;;;;30.23;23.30;;;22.10;47.70;;;;;;5013296;28;20480;-58
2021/01/24 07:07:50;;;;;;;31.33;25.52;;;22.10;47.80;;;;;;5030009;28;20042;-58
2021/01/24 07:10:37;;;;;;;36.90;30.95;;;22.10;47.80;;;;;;5032948;28;20041;-58
2021/01/24 07:13:30;;;;;;;51.85;40.42;;;22.00;47.70;;;;;;5022807;28;20045;-58
2021/01/24 07:16:07;;;;;;;54.60;48.20;;;22.10;47.80;;;;;;5013723;28;20527;-58
2021/01/24 07:18:44;;;;;;;58.20;49.17;;;22.10;47.90;;;;;;5013610;28;20050;-59
2021/01/24 07:21:11;;;;;;;57.47;48.40;;;22.10;47.90;;;;;;5013157;28;20062;-59
2021/01/24 07:23:39;;;;;;;59.78;51.50;;;22.10;47.90;;;;;;5012980;28;20439;-59
2021/01/24 07:26:07;;;;;;;61.47;51.85;;;22.10;48.00;;;;;;5013003;28;20030;-59
2021/01/24 07:28:34;;;;;;;60.97;52.30;;;22.10;48.10;;;;;;5044422;28;20036;-59
2021/01/24 07:31:03;;;;;;;64.15;52.50;;;22.10;48.20;;;;;;5075214;28;20029;-59
2021/01/24 07:33:30;;;;;;;65.05;52.45;;;22.10;48.20;;;;;;5074683;28;20070;-59
2021/01/24 07:36:01;;;;;;;62.67;49.58;;;22.10;48.20;;;;;;5074331;28;20064;-59
2021/01/24 07:38:28;;;;;;;62.15;51.10;;;22.10;48.30;;;;;;5084496;28;20039;-61
2021/01/24 07:40:59;;;;;;;59.83;50.20;;;22.10;48.30;;;;;;5094754;28;20055;-59
2021/01/24 07:43:27;;;;;;;59.72;49.70;;;22.10;48.30;;;;;;5090727;28;20040;-58
2021/01/24 07:45:54;;;;;;;61.63;48.42;;;22.10;48.30;;;;;;5093679;28;20032;-59
2021/01/24 07:48:20;;;;;;;65.32;49.58;;;22.10;48.40;;;;;;5094587;28;20024;-58
2021/01/24 07:50:46;;;;;;;142.30;116.63;;;22.10;48.40;;;;;;5094325;28;20024;-57
2021/01/24 07:53:13;;;;;;;278.83;251.98;;;22.10;48.60;;;;;;5094444;28;20032;-56
2021/01/24 07:55:41;;;;;;;827.13;723.75;;;22.10;49.00;;;;;;5076228;28;20354;-57
2021/01/24 07:58:08;;;;;;;265.67;236.93;;;22.10;49.00;;;;;;5093091;28;20447;-58
2021/01/24 08:00:35;;;;;;;209.60;186.85;;;22.00;48.80;;;;;;5092902;28;20028;-58
2021/01/24 08:03:01;;;;;;;210.35;187.70;;;22.00;48.80;;;;;;5094429;28;20016;-56
2021/01/24 08:05:34;;;;;;;759.63;672.92;;;22.00;48.80;;;;;;5092868;28;20024;-55
2021/01/24 08:08:00;;;;;;;225.32;201.45;;;22.00;49.40;;;;;;5074808;28;20016;-55
2021/01/24 08:10:32;;;;;;;191.63;170.20;;;22.00;49.30;;;;;;5093901;28;20028;-55
2021/01/24 08:12:59;;;;;;;191.05;170.48;;;22.00;49.30;;;;;;5092903;28;20052;-55
2021/01/24 08:15:26;;;;;;;168.25;147.80;;;21.90;49.20;;;;;;5093385;28;20039;-56
2021/01/24 08:17:52;;;;;;;158.73;141.30;;;22.00;49.30;;;;;;5092506;28;20107;-55
2021/01/24 08:20:20;;;;;;;145.63;129.55;;;22.00;49.40;;;;;;5092230;28;20419;-55
2021/01/24 08:22:46;;;;;;;124.90;110.05;;;21.90;49.30;;;;;;5093309;28;20056;-55
2021/01/24 08:25:14;;;;;;;118.38;103.65;;;22.00;49.40;;;;;;5092893;28;20020;-58
2021/01/24 08:27:40;;;;;;;97.43;84.75;;;22.00;49.40;;;;;;5093670;28;20069;-61
2021/01/24 08:30:07;;;;;;;89.25;74.20;;;22.00;49.40;;;;;;5093276;28;20039;-61
2021/01/24 08:32:33;;;;;;;88.05;78.40;;;22.00;49.50;;;;;;5093854;28;20107;-59
2021/01/24 08:34:59;;;;;;;76.45;66.63;;;22.10;49.50;;;;;;5093812;28;20031;-59
2021/01/24 08:37:26;;;;;;;52.95;43.60;;;22.10;50.00;;;;;;5093125;28;20057;-58
2021/01/24 08:39:53;;;;;;;208.43;186.07;;;22.10;49.50;;;;;;5093013;28;20020;-60
2021/01/24 08:42:19;;;;;;;81.47;72.50;;;22.10;49.70;;;;;;5093291;28;20054;-59
2021/01/24 08:45:05;;;;;;;33.50;25.17;;;22.10;49.60;;;;;;5093221;28;20057;-59
2021/01/24 08:47:31;;;;;;;43.83;37.75;;;22.10;50.00;;;;;;5085918;28;20024;-61
2021/01/24 08:50:09;;;;;;;48.25;37.70;;;22.20;49.90;;;;;;5092240;28;20451;-62
2021/01/24 08:52:35;;;;;;;41.88;35.40;;;22.10;50.20;;;;;;5073129;28;20032;-59
2021/01/24 08:55:03;;;;;;;60.60;49.83;;;22.10;50.60;;;;;;5088729;28;20039;-59
2021/01/24 08:57:33;;;;;;;42.20;32.03;;;22.10;50.00;;;;;;5092653;28;20036;-61
2021/01/24 09:00:09;;;;;;;45.22;36.33;;;22.00;50.00;;;;;;5093435;28;20354;-61
2021/01/24 09:02:37;;;;;;;44.65;35.85;;;22.10;50.10;;;;;;5092775;28;20028;-61
2021/01/24 09:05:05;;;;;;;45.08;34.13;;;22.00;50.00;;;;;;5092178;28;20024;-61
2021/01/24 09:07:44;;;;;;;34.13;29.70;;;22.10;50.00;;;;;;5092552;28;20024;-61
2021/01/24 09:10:20;;;;;;;34.97;26.73;;;22.10;50.10;;;;;;5091467;28;20028;-61
2021/01/24 09:13:00;;;;;;;29.23;25.80;;;22.10;49.90;;;;;;5091055;28;20126;-58
2021/01/24 09:15:30;;;;;;;28.65;23.63;;;22.20;49.90;;;;;;5092216;28;20058;-59
2021/01/24 09:17:57;;;;;;;28.52;21.65;;;22.30;49.90;;;;;;5090822;28;20452;-58
2021/01/24 09:20:25;;;;;;;24.27;18.90;;;22.30;49.80;;;;;;5090566;28;20032;-58
2021/01/24 09:22:51;;;;;;;22.25;17.60;;;22.40;49.80;;;;;;5091939;28;20073;-59
2021/01/24 09:25:18;;;;;;;24.65;18.65;;;22.40;49.70;;;;;;5092314;28;20028;-61
2021/01/24 09:27:44;;;;;;;19.67;16.92;;;22.40;49.60;;;;;;5091513;28;20020;-62
2021/01/24 09:30:13;;;;;;;16.30;12.55;;;22.50;49.60;;;;;;5091472;28;20099;-62
2021/01/24 09:32:39;;;;;;;53.05;41.83;;;22.50;49.70;;;;;;5091846;28;20024;-62
2021/01/24 09:35:06;;;;;;;21.95;18.73;;;22.50;49.60;;;;;;5086633;28;20374;-60
2021/01/24 09:37:33;;;;;;;24.02;19.00;;;22.50;49.70;;;;;;5090350;28;20040;-60
2021/01/24 09:39:59;;;;;;;25.08;19.02;;;22.50;49.70;;;;;;5090451;28;20028;-60
2021/01/24 09:42:25;;;;;;;23.60;18.52;;;22.50;49.90;;;;;;5091446;28;20028;-62
2021/01/24 09:44:51;;;;;;;7.57;5.85;;;22.50;49.90;;;;;;5084934;28;20443;-61
2021/01/24 09:47:18;;;;;;;7.50;6.80;;;22.50;50.30;;;;;;5088634;28;20028;-59
2021/01/24 09:49:44;;;;;;;13.80;9.75;;;22.50;50.30;;;;;;5090768;28;20783;-59
2021/01/24 09:52:10;;;;;;;11.80;7.55;;;22.40;50.40;;;;;;5073471;28;20828;-58
2021/01/24 09:54:36;;;;;;;8.45;5.90;;;22.40;50.60;;;;;;5090796;28;20030;-61
2021/01/24 09:57:02;;;;;;;8.45;5.45;;;22.40;50.70;;;;;;5089685;28;20028;-58
2021/01/24 09:59:28;;;;;;;3.90;3.40;;;22.40;50.80;;;;;;5091217;28;20048;-59
2021/01/24 10:01:54;;;;;;;6.85;3.60;;;22.40;50.90;;;;;;5091894;28;20108;-59
2021/01/24 10:04:20;;;;;;;5.18;3.08;;;22.50;51.00;;;;;;5094295;28;20485;-59
2021/01/24 10:06:45;;;;;;;7.53;3.92;;;22.50;50.90;;;;;;5093398;28;20020;-57
2021/01/24 10:09:11;;;;;;;24.60;19.90;;;22.50;50.80;;;;;;5110363;28;20111;-59
2021/01/24 10:11:37;;;;;;;145.18;129.40;;;22.60;50.70;;;;;;5093586;28;20054;-58
2021/01/24 10:14:03;;;;;;;101.22;90.50;;;22.70;50.70;;;;;;5093581;28;20028;-59
2021/01/24 10:16:30;;;;;;;36.67;32.67;;;22.80;50.60;;;;;;5092470;28;20032;-60
2021/01/24 10:18:57;;;;;;;23.90;20.25;;;22.90;50.60;;;;;;5093273;28;20030;-60
2021/01/24 10:21:23;;;;;;;47.78;39.38;;;23.00;50.60;;;;;;5092698;28;20020;-58
2021/01/24 10:23:49;;;;;;;24.83;20.83;;;23.10;50.30;;;;;;5090469;28;20021;-57
2021/01/24 10:26:15;;;;;;;16.40;13.88;;;23.10;50.30;;;;;;5094411;28;20027;-56
2021/01/24 10:28:41;;;;;;;24.27;20.85;;;23.20;50.90;;;;;;5094902;28;20028;-62
2021/01/24 10:31:07;;;;;;;89.22;79.45;;;23.20;50.00;;;;;;5092930;28;20024;-57
2021/01/24 10:33:33;;;;;;;50.88;44.28;;;23.30;49.90;;;;;;5092880;28;20032;-61
2021/01/24 10:35:59;;;;;;;15.45;12.07;;;23.40;49.90;;;;;;5093951;28;20044;-60
2021/01/24 10:38:25;;;;;;;8.63;6.35;;;23.40;50.00;;;;;;5084981;28;20490;-59
2021/01/24 10:40:51;;;;;;;15.52;12.25;;;23.40;50.10;;;;;;5094121;28;20020;-60
2021/01/24 10:43:18;;;;;;;27.17;23.30;;;23.30;50.20;;;;;;5096620;28;20031;-60
2021/01/24 10:45:44;;;;;;;22.92;19.35;;;23.20;50.20;;;;;;5114332;28;20019;-58
2021/01/24 10:48:11;;;;;;;20.95;15.15;;;23.20;50.30;;;;;;5093235;28;20092;-58
2021/01/24 10:50:39;;;;;;;12.82;9.00;;;23.20;50.30;;;;;;5092723;28;20032;-60
2021/01/24 10:53:06;;;;;;;8.43;4.90;;;23.20;50.60;;;;;;5094230;28;20020;-69
2021/01/24 10:55:33;;;;;;;8.55;6.20;;;23.30;51.10;;;;;;5093761;28;20073;-63
2021/01/24 10:58:00;;;;;;;12.18;5.30;;;23.30;50.90;;;;;;5094028;28;20043;-64
2021/01/24 11:00:26;;;;;;;8.13;4.55;;;23.30;50.90;;;;;;5094090;28;20170;-66
2021/01/24 11:02:52;;;;;;;8.23;3.97;;;23.40;50.90;;;;;;5093772;28;20028;-64
2021/01/24 11:05:19;;;;;;;6.70;3.70;;;23.40;50.90;;;;;;5092433;28;20024;-67
2021/01/24 11:07:44;;;;;;;4.07;2.90;;;23.50;50.90;;;;;;5092026;28;20517;-66
2021/01/24 11:10:11;;;;;;;4.28;2.67;;;23.60;50.80;;;;;;5093448;28;20047;-65
2021/01/24 11:12:38;;;;;;;3.30;2.30;;;23.60;50.70;;;;;;5093374;28;20118;-62
2021/01/24 11:15:05;;;;;;;4.00;2.58;;;23.70;50.60;;;;;;5092570;28;20212;-65
2021/01/24 11:17:31;;;;;;;2.42;1.95;;;23.80;50.70;;;;;;5092199;28;20036;-64
2021/01/24 11:19:57;;;;;;;5.00;2.80;;;23.90;50.60;;;;;;5074826;28;20114;-65
2021/01/24 11:22:24;;;;;;;4.93;2.35;;;24.00;50.50;;;;;;5093574;28;20020;-65
2021/01/24 11:24:50;;;;;;;5.15;2.65;;;24.00;50.40;;;;;;5092533;28;20052;-65
2021/01/24 11:27:17;;;;;;;4.10;2.22;;;24.00;50.30;;;;;;5091901;28;20035;-65
2021/01/24 11:29:43;;;;;;;4.10;2.92;;;24.10;50.20;;;;;;5097974;28;20027;-65
2021/01/24 11:32:10;;;;;;;4.25;2.67;;;24.20;50.10;;;;;;5113833;28;20020;-66
2021/01/24 11:34:38;;;;;;;4.38;3.15;;;24.20;50.20;;;;;;5113222;28;20035;-66
2021/01/24 11:37:05;;;;;;;4.53;2.75;;;24.30;50.10;;;;;;5079978;28;20051;-65
2021/01/24 11:39:31;;;;;;;19.13;15.63;;;24.40;50.20;;;;;;5093227;28;20111;-65
2021/01/24 11:41:57;;;;;;;29.05;26.05;;;24.50;50.20;;;;;;5077814;28;20106;-59
2021/01/24 11:44:24;;;;;;;53.38;47.50;;;24.60;50.00;;;;;;5113677;28;20051;-62
2021/01/24 11:46:51;;;;;;;47.15;39.95;;;24.70;49.80;;;;;;5092237;28;20016;-65
2021/01/24 11:49:18;;;;;;;30.58;27.27;;;24.90;49.50;;;;;;5091940;28;20024;-66
2021/01/24 11:51:45;;;;;;;29.05;25.60;;;25.00;49.10;;;;;;5093651;28;20104;-66
2021/01/24 11:54:11;;;;;;;22.52;19.95;;;25.20;48.90;;;;;;5058165;28;20062;-61
2021/01/24 11:56:37;;;;;;;19.00;16.10;;;25.30;48.70;;;;;;5092510;28;20465;-62
2021/01/24 11:59:03;;;;;;;17.10;13.88;;;25.60;48.30;;;;;;5060592;28;20035;-64
2021/01/24 12:01:29;;;;;;;14.75;11.10;;;25.80;47.60;;;;;;5092737;28;20023;-65
2021/01/24 12:03:55;;;;;;;19.38;10.90;;;25.90;46.90;;;;;;5092786;28;20024;-60
2021/01/24 12:06:21;;;;;;;18.65;13.18;;;26.00;46.30;;;;;;5093162;28;20476;-67
2021/01/24 12:08:47;;;;;;;39.92;35.58;;;26.00;46.00;;;;;;5058108;28;20028;-69
2021/01/24 12:11:13;;;;;;;59.35;52.30;;;26.00;45.40;;;;;;5092785;28;20059;-65
2021/01/24 12:13:39;;;;;;;37.28;32.28;;;26.00;44.90;;;;;;5093373;28;20024;-61
2021/01/24 12:16:05;;;;;;;27.63;21.17;;;26.00;44.60;;;;;;5093265;28;20035;-61
2021/01/24 12:18:31;;;;;;;19.83;16.25;;;25.90;44.50;;;;;;5093210;28;20032;-61
2021/01/24 12:20:57;;;;;;;17.08;13.13;;;25.90;44.90;;;;;;5088948;28;20492;-63
2021/01/24 12:23:23;;;;;;;12.65;10.68;;;26.10;44.90;;;;;;5092962;28;20496;-64
2021/01/24 12:25:49;;;;;;;6.55;5.20;;;26.40;45.00;;;;;;5092023;28;20031;-63
2021/01/24 12:28:16;;;;;;;9.98;7.10;;;26.80;44.20;;;;;;5092042;28;20012;-65
2021/01/24 12:30:42;;;;;;;9.65;7.15;;;27.20;43.60;;;;;;5074037;28;20032;-61
2021/01/24 12:33:11;;;;;;;11.35;6.78;;;27.70;43.10;;;;;;5074045;28;20110;-60